Time;durP1;ratioP1;P1;durP2;ratioP2;P2;SDS_P1;SDS_P2;PMS_P1;PMS_P2;Temp;Humidity;BMP_temperature;BMP_pressure;BME280_temperature;BME280_humidity;BME280_pressure;Samples;Min_cycle;Max_cycle;Signal;HPM_P1;HPM_P2
2023/07/05 00:01:31;;;;;;;11.00;3.83;;;;;;;;;;5105922;28;20044;-68
2023/07/05 00:03:57;;;;;;;12.35;4.57;;;;;;;;;;5099500;28;20105;-68
2023/07/05 00:06:27;;;;;;;8.95;4.45;;;;;;;;;;5102666;28;20043;-68
2023/07/05 00:08:53;;;;;;;14.18;4.78;;;;;;;;;;5109790;28;20040;-67
2023/07/05 00:11:20;;;;;;;10.88;5.10;;;;;;;;;;5109511;28;20043;-68
2023/07/05 00:13:46;;;;;;;12.65;4.93;;;;;;;;;;5104213;27;20131;-67
2023/07/05 00:16:13;;;;;;;15.38;4.88;;;;;;;;;;5104485;28;20035;-68
2023/07/05 00:18:39;;;;;;;15.32;5.68;;;;;;;;;;5103023;28;20088;-68
2023/07/05 00:21:07;;;;;;;11.98;5.18;;;;;;;;;;5103524;28;20130;-68
2023/07/05 00:23:34;;;;;;;15.00;5.07;;;;;;;;;;5100523;28;20043;-68
2023/07/05 00:26:01;;;;;;;15.98;5.40;;;;;;;;;;5101019;28;20178;-68
2023/07/05 00:28:27;;;;;;;13.07;5.10;;;;;;;;;;5101107;28;20040;-68
2023/07/05 00:30:53;;;;;;;12.82;5.82;;;;;;;;;;5079502;28;20107;-68
2023/07/05 00:33:19;;;;;;;13.80;5.45;;;;;;;;;;5103962;27;20043;-68
2023/07/05 00:35:49;;;;;;;11.52;5.65;;;;;;;;;;5105183;27;20043;-68
2023/07/05 00:38:16;;;;;;;14.88;5.45;;;;;;;;;;5100973;28;20096;-68
2023/07/05 00:40:42;;;;;;;12.20;5.05;;;;;;;;;;5104964;28;20063;-68
2023/07/05 00:43:09;;;;;;;13.32;5.72;;;;;;;;;;5104166;28;20097;-68
2023/07/05 00:45:56;;;;;;;19.02;6.30;;;;;;;;;;5104233;28;20060;-68
2023/07/05 00:48:25;;;;;;;15.48;5.50;;;;;;;;;;5105441;28;20050;-68
2023/07/05 00:50:55;;;;;;;18.25;6.03;;;;;;;;;;5110561;27;20368;-68
2023/07/05 00:53:22;;;;;;;13.10;5.30;;;;;;;;;;5100501;28;20463;-68
2023/07/05 00:55:50;;;;;;;11.82;5.85;;;;;;;;;;5108870;28;20035;-68
2023/07/05 00:58:16;;;;;;;16.40;7.20;;;;;;;;;;5109856;28;20070;-68
2023/07/05 01:00:43;;;;;;;12.02;5.95;;;;;;;;;;5107002;28;20364;-68
2023/07/05 01:03:13;;;;;;;12.18;6.20;;;;;;;;;;5111715;28;20050;-67
2023/07/05 01:05:39;;;;;;;12.20;5.95;;;;;;;;;;5112212;28;20108;-68
2023/07/05 01:08:06;;;;;;;14.68;5.97;;;;;;;;;;5112640;28;20035;-68
2023/07/05 01:10:32;;;;;;;10.68;5.32;;;;;;;;;;5108673;28;20055;-68
2023/07/05 01:13:05;;;;;;;13.45;6.10;;;;;;;;;;5101910;28;20081;-68
2023/07/05 01:15:39;;;;;;;11.90;5.93;;;;;;;;;;5101838;28;20031;-68
2023/07/05 01:18:08;;;;;;;14.85;6.38;;;;;;;;;;5101242;28;20088;-68
2023/07/05 01:20:49;;;;;;;15.20;6.45;;;;;;;;;;5101917;28;20081;-68
2023/07/05 01:23:34;;;;;;;15.48;6.53;;;;;;;;;;5105052;28;20039;-68
2023/07/05 01:26:32;;;;;;;13.75;5.88;;;;;;;;;;5104245;28;20050;-68
2023/07/05 01:29:01;;;;;;;14.80;6.10;;;;;;;;;;5085330;28;20383;-68
2023/07/05 01:31:34;;;;;;;15.63;6.45;;;;;;;;;;5106824;27;20131;-68
2023/07/05 01:34:23;;;;;;;13.45;6.45;;;;;;;;;;5112372;28;20051;-68
2023/07/05 01:36:49;;;;;;;15.45;7.25;;;;;;;;;;5130346;27;20071;-68
2023/07/05 01:39:15;;;;;;;20.42;8.50;;;;;;;;;;5111994;27;20352;-68
2023/07/05 01:41:42;;;;;;;11.90;6.97;;;;;;;;;;5113900;27;20503;-68
2023/07/05 01:44:08;;;;;;;16.17;6.65;;;;;;;;;;5114491;28;20047;-68
2023/07/05 01:46:38;;;;;;;15.35;6.85;;;;;;;;;;5109233;28;20078;-68
2023/07/05 01:49:08;;;;;;;13.52;7.30;;;;;;;;;;5110237;28;20085;-68
2023/07/05 01:51:39;;;;;;;17.02;8.02;;;;;;;;;;5113136;27;20122;-68
2023/07/05 01:54:17;;;;;;;11.60;6.55;;;;;;;;;;5114423;27;20489;-68
2023/07/05 01:57:02;;;;;;;14.32;6.65;;;;;;;;;;5113351;27;20043;-68
2023/07/05 01:59:32;;;;;;;16.40;8.05;;;;;;;;;;5112027;28;20071;-68
2023/07/05 02:01:59;;;;;;;14.95;8.00;;;;;;;;;;5111111;27;20091;-68
2023/07/05 02:04:27;;;;;;;14.68;7.63;;;;;;;;;;5113029;27;20052;-68
2023/07/05 02:06:53;;;;;;;17.73;7.53;;;;;;;;;;5113762;27;20047;-68
2023/07/05 02:09:20;;;;;;;15.20;7.72;;;;;;;;;;5106184;28;20043;-68
2023/07/05 02:11:46;;;;;;;18.05;7.80;;;;;;;;;;5095699;28;20047;-68
2023/07/05 02:14:12;;;;;;;16.30;7.85;;;;;;;;;;5114627;28;20093;-68
2023/07/05 02:16:39;;;;;;;13.13;7.57;;;;;;;;;;5111910;28;20047;-68
2023/07/05 02:19:06;;;;;;;19.58;7.25;;;;;;;;;;5109981;27;20072;-68
2023/07/05 02:21:32;;;;;;;19.02;7.22;;;;;;;;;;5110547;27;20047;-68
2023/07/05 02:23:58;;;;;;;17.75;8.45;;;;;;;;;;5105927;27;20063;-68
2023/07/05 02:26:25;;;;;;;15.52;8.98;;;;;;;;;;5106313;28;20036;-68
2023/07/05 02:28:51;;;;;;;16.15;8.80;;;;;;;;;;5103637;28;20052;-68
2023/07/05 02:31:17;;;;;;;16.17;9.10;;;;;;;;;;5105319;27;20368;-68
2023/07/05 02:33:44;;;;;;;19.05;9.38;;;;;;;;;;5103039;28;20113;-68
2023/07/05 02:36:14;;;;;;;18.65;8.82;;;;;;;;;;5108961;28;20096;-68
2023/07/05 02:38:41;;;;;;;21.52;9.30;;;;;;;;;;5094319;27;20043;-68
2023/07/05 02:41:08;;;;;;;15.27;8.23;;;;;;;;;;5095340;28;20051;-68
2023/07/05 02:43:34;;;;;;;18.55;8.98;;;;;;;;;;5100216;27;20047;-68
2023/07/05 02:46:01;;;;;;;15.85;9.20;;;;;;;;;;5098703;28;20067;-68
2023/07/05 02:48:27;;;;;;;15.18;8.88;;;;;;;;;;5106799;27;21006;-68
2023/07/05 02:50:53;;;;;;;18.60;10.20;;;;;;;;;;5104969;28;20027;-68
2023/07/05 02:53:20;;;;;;;16.02;9.35;;;;;;;;;;5103505;27;20101;-68
2023/07/05 02:55:46;;;;;;;18.73;9.98;;;;;;;;;;5103850;27;20048;-68
2023/07/05 02:58:12;;;;;;;21.92;10.40;;;;;;;;;;5102098;28;20044;-68
2023/07/05 03:00:38;;;;;;;20.25;11.45;;;;;;;;;;5107470;28;20075;-68
2023/07/05 03:03:04;;;;;;;17.17;12.00;;;;;;;;;;5111065;28;20115;-68
2023/07/05 03:05:30;;;;;;;19.67;10.77;;;;;;;;;;5110364;27;20039;-67
2023/07/05 03:07:57;;;;;;;23.75;12.75;;;;;;;;;;5103256;28;20535;-67
2023/07/05 03:10:23;;;;;;;22.13;13.80;;;;;;;;;;5109548;27;20063;-67
2023/07/05 03:12:49;;;;;;;19.63;12.57;;;;;;;;;;5102788;28;20043;-67
2023/07/05 03:15:15;;;;;;;23.33;13.15;;;;;;;;;;5103985;28;20458;-67
2023/07/05 03:17:41;;;;;;;21.90;12.73;;;;;;;;;;5106015;28;20495;-67
2023/07/05 03:20:08;;;;;;;20.90;13.25;;;;;;;;;;5103867;28;20126;-67
2023/07/05 03:22:34;;;;;;;25.17;13.63;;;;;;;;;;5109072;27;20042;-67
2023/07/05 03:25:00;;;;;;;19.20;13.45;;;;;;;;;;5094212;28;20046;-67
2023/07/05 03:27:28;;;;;;;25.27;13.90;;;;;;;;;;5102602;28;20048;-68
2023/07/05 03:29:55;;;;;;;27.02;14.50;;;;;;;;;;5134637;27;20439;-67
2023/07/05 03:32:22;;;;;;;21.60;13.77;;;;;;;;;;5100515;28;20046;-67
2023/07/05 03:34:48;;;;;;;24.13;15.57;;;;;;;;;;5107005;28;20035;-67
2023/07/05 03:37:14;;;;;;;21.30;15.13;;;;;;;;;;5102010;28;20088;-68
2023/07/05 03:39:40;;;;;;;25.38;15.25;;;;;;;;;;5134716;27;20495;-67
2023/07/05 03:42:07;;;;;;;23.75;14.98;;;;;;;;;;5107266;28;20049;-68
2023/07/05 03:44:33;;;;;;;22.20;15.65;;;;;;;;;;5119635;27;20118;-67
2023/07/05 03:46:59;;;;;;;28.52;15.73;;;;;;;;;;5103555;28;20067;-67
2023/07/05 03:49:25;;;;;;;22.92;14.30;;;;;;;;;;5106692;28;20071;-67
2023/07/05 03:51:51;;;;;;;26.95;14.60;;;;;;;;;;5110080;28;20123;-67
2023/07/05 03:54:18;;;;;;;22.48;14.68;;;;;;;;;;5099906;28;20047;-68
2023/07/05 03:56:44;;;;;;;19.27;12.80;;;;;;;;;;5103823;27;20053;-67
2023/07/05 03:59:11;;;;;;;22.35;12.77;;;;;;;;;;5104494;28;20075;-67
2023/07/05 04:01:37;;;;;;;22.13;13.48;;;;;;;;;;5103879;28;20047;-67
2023/07/05 04:04:03;;;;;;;20.77;14.48;;;;;;;;;;5100227;28;20441;-67
2023/07/05 04:06:31;;;;;;;22.45;14.27;;;;;;;;;;5109045;28;20348;-67
2023/07/05 04:08:57;;;;;;;26.65;14.68;;;;;;;;;;5101462;28;20508;-68
2023/07/05 04:11:24;;;;;;;22.20;14.63;;;;;;;;;;5108910;28;20035;-68
2023/07/05 04:13:50;;;;;;;22.63;14.82;;;;;;;;;;5110993;27;20043;-64
2023/07/05 04:16:18;;;;;;;23.52;14.20;;;;;;;;;;5105037;28;20429;-64
2023/07/05 04:18:46;;;;;;;23.45;13.38;;;;;;;;;;5100193;28;20187;-64
2023/07/05 04:21:13;;;;;;;23.75;14.75;;;;;;;;;;5104504;28;20507;-64
2023/07/05 04:23:39;;;;;;;19.40;14.05;;;;;;;;;;5099067;28;20385;-64
2023/07/05 04:26:08;;;;;;;21.40;14.65;;;;;;;;;;5102478;28;20104;-64
2023/07/05 04:28:35;;;;;;;19.77;15.02;;;;;;;;;;5135430;27;20121;-64
2023/07/05 04:31:01;;;;;;;19.35;13.32;;;;;;;;;;5104171;27;20051;-64
2023/07/05 04:33:28;;;;;;;22.38;14.52;;;;;;;;;;5101343;28;20568;-64
2023/07/05 04:35:58;;;;;;;23.02;12.98;;;;;;;;;;5102967;28;20081;-64
2023/07/05 04:38:25;;;;;;;21.45;12.43;;;;;;;;;;5134881;27;20064;-64
2023/07/05 04:40:52;;;;;;;19.73;11.40;;;;;;;;;;5102316;28;20044;-64
2023/07/05 04:43:18;;;;;;;18.33;11.15;;;;;;;;;;5100012;27;20051;-63
2023/07/05 04:46:11;;;;;;;23.50;10.98;;;;;;;;;;5105990;28;20057;-64
2023/07/05 04:48:37;;;;;;;16.85;9.88;;;;;;;;;;5101977;28;20067;-64
2023/07/05 04:51:05;;;;;;;14.40;9.20;;;;;;;;;;5108066;28;20043;-64
2023/07/05 04:53:31;;;;;;;13.25;8.13;;;;;;;;;;5101940;28;20460;-64
2023/07/05 04:55:59;;;;;;;10.07;6.00;;;;;;;;;;5110053;28;20044;-64
2023/07/05 04:58:25;;;;;;;18.52;5.22;;;;;;;;;;5112058;27;20046;-64
2023/07/05 05:00:51;;;;;;;9.20;4.32;;;;;;;;;;5110606;28;20063;-66
2023/07/05 05:03:19;;;;;;;9.75;3.83;;;;;;;;;;5108801;28;20036;-66
2023/07/05 05:05:46;;;;;;;9.20;3.78;;;;;;;;;;5111844;28;20046;-66
2023/07/05 05:08:13;;;;;;;8.20;3.63;;;;;;;;;;5108551;28;20047;-66
2023/07/05 05:10:39;;;;;;;12.07;4.05;;;;;;;;;;5109115;28;20490;-66
2023/07/05 05:13:07;;;;;;;8.77;4.10;;;;;;;;;;5109493;28;20491;-66
2023/07/05 05:15:39;;;;;;;9.00;4.30;;;;;;;;;;5112092;28;20165;-66
2023/07/05 05:18:07;;;;;;;9.23;4.15;;;;;;;;;;5103475;28;20031;-66
2023/07/05 05:20:33;;;;;;;8.82;4.57;;;;;;;;;;5101924;28;20051;-66
2023/07/05 05:22:59;;;;;;;11.43;4.47;;;;;;;;;;5111275;28;20548;-64
2023/07/05 05:25:26;;;;;;;7.07;3.90;;;;;;;;;;5109055;28;20479;-67
2023/07/05 05:27:52;;;;;;;7.93;4.78;;;;;;;;;;5110406;28;20052;-66
2023/07/05 05:30:19;;;;;;;9.82;4.47;;;;;;;;;;5109440;28;20047;-67
2023/07/05 05:32:46;;;;;;;9.15;4.65;;;;;;;;;;5110918;28;20122;-67
2023/07/05 05:35:12;;;;;;;8.25;4.65;;;;;;;;;;5107701;28;20079;-68
2023/07/05 05:37:39;;;;;;;10.73;5.35;;;;;;;;;;5104484;28;20044;-67
2023/07/05 05:40:06;;;;;;;10.13;6.07;;;;;;;;;;5101929;28;20035;-67
2023/07/05 05:42:32;;;;;;;7.35;4.70;;;;;;;;;;5096823;28;20130;-68
2023/07/05 05:44:59;;;;;;;8.07;4.93;;;;;;;;;;5109014;28;20445;-68
2023/07/05 05:47:25;;;;;;;8.90;5.18;;;;;;;;;;5111219;28;20142;-68
2023/07/05 05:49:51;;;;;;;10.95;5.40;;;;;;;;;;5102598;28;20039;-68
2023/07/05 05:52:17;;;;;;;9.60;4.80;;;;;;;;;;5110883;28;20044;-68
2023/07/05 05:54:43;;;;;;;10.88;5.07;;;;;;;;;;5111742;28;20067;-68
2023/07/05 05:57:10;;;;;;;9.90;4.10;;;;;;;;;;5108786;28;20126;-67
2023/07/05 05:59:36;;;;;;;14.27;4.82;;;;;;;;;;5110967;28;20035;-67
2023/07/05 06:02:02;;;;;;;11.63;4.60;;;;;;;;;;5105650;28;20036;-66
2023/07/05 06:04:28;;;;;;;8.20;4.18;;;;;;;;;;5106012;28;20048;-67
2023/07/05 06:06:55;;;;;;;10.55;5.00;;;;;;;;;;5108621;28;20359;-67
2023/07/05 06:09:24;;;;;;;9.38;5.00;;;;;;;;;;5109495;28;20082;-64
2023/07/05 06:11:50;;;;;;;9.35;5.63;;;;;;;;;;5106978;28;20044;-67
2023/07/05 06:14:17;;;;;;;9.27;4.70;;;;;;;;;;5125866;27;20454;-67
2023/07/05 06:16:43;;;;;;;10.50;5.82;;;;;;;;;;5106826;28;20044;-68
2023/07/05 06:19:09;;;;;;;9.75;4.65;;;;;;;;;;5111347;28;20382;-67
2023/07/05 06:21:35;;;;;;;8.00;4.53;;;;;;;;;;5097711;27;20040;-67
2023/07/05 06:24:01;;;;;;;8.40;4.13;;;;;;;;;;5105279;28;20491;-68
2023/07/05 06:26:28;;;;;;;7.05;4.03;;;;;;;;;;5112061;28;20058;-68
2023/07/05 06:28:54;;;;;;;9.45;4.93;;;;;;;;;;5104274;27;20040;-67
2023/07/05 06:31:20;;;;;;;8.55;4.70;;;;;;;;;;5106625;28;20341;-68
2023/07/05 06:33:46;;;;;;;7.63;4.32;;;;;;;;;;5097095;27;20095;-68
2023/07/05 06:36:12;;;;;;;9.35;4.20;;;;;;;;;;5132652;27;20055;-63
2023/07/05 06:38:39;;;;;;;12.57;4.35;;;;;;;;;;5101399;28;20105;-63
2023/07/05 06:41:05;;;;;;;6.95;4.15;;;;;;;;;;5102695;28;20074;-68
2023/07/05 06:43:31;;;;;;;9.57;4.00;;;;;;;;;;5108757;27;20063;-67
2023/07/05 06:45:57;;;;;;;7.68;4.35;;;;;;;;;;5106625;27;20051;-68
2023/07/05 06:48:24;;;;;;;7.07;3.92;;;;;;;;;;5110249;28;20131;-68
2023/07/05 06:50:51;;;;;;;9.25;3.55;;;;;;;;;;5104108;28;20036;-68
2023/07/05 06:53:17;;;;;;;6.18;3.03;;;;;;;;;;5108383;28;20044;-68
2023/07/05 06:55:44;;;;;;;6.63;3.40;;;;;;;;;;5105988;28;20044;-69
2023/07/05 06:58:10;;;;;;;5.65;2.63;;;;;;;;;;5113808;28;20380;-68
2023/07/05 07:00:36;;;;;;;5.80;2.92;;;;;;;;;;5109931;27;20177;-68
2023/07/05 07:03:03;;;;;;;6.50;2.45;;;;;;;;;;5111230;27;20108;-68
2023/07/05 07:05:31;;;;;;;7.05;2.72;;;;;;;;;;5107978;28;20506;-68
2023/07/05 07:07:57;;;;;;;8.60;2.33;;;;;;;;;;5112462;28;20047;-68
2023/07/05 07:10:23;;;;;;;5.95;2.95;;;;;;;;;;5110203;28;20463;-68
2023/07/05 07:12:49;;;;;;;7.60;2.92;;;;;;;;;;5111093;28;20161;-68
2023/07/05 07:15:16;;;;;;;8.05;2.92;;;;;;;;;;5105810;28;20483;-68
2023/07/05 07:17:42;;;;;;;7.72;2.78;;;;;;;;;;5124416;27;20044;-68
2023/07/05 07:20:08;;;;;;;6.22;2.78;;;;;;;;;;5144176;27;20138;-68
2023/07/05 07:22:34;;;;;;;5.47;2.70;;;;;;;;;;5108286;27;20435;-75
2023/07/05 07:25:01;;;;;;;11.70;2.85;;;;;;;;;;5105186;28;20127;-68
2023/07/05 07:27:27;;;;;;;5.75;2.85;;;;;;;;;;5108496;27;20526;-68
2023/07/05 07:29:53;;;;;;;6.57;2.10;;;;;;;;;;5098066;28;20098;-67
2023/07/05 07:32:20;;;;;;;5.45;2.03;;;;;;;;;;5109116;28;20044;-71
2023/07/05 07:34:46;;;;;;;5.45;1.25;;;;;;;;;;5110187;27;20039;-76
2023/07/05 07:37:12;;;;;;;3.55;1.40;;;;;;;;;;5113863;27;20042;-71
2023/07/05 07:39:38;;;;;;;6.13;1.85;;;;;;;;;;5087534;27;20062;-67
2023/07/05 07:42:05;;;;;;;9.20;2.75;;;;;;;;;;5109643;28;20091;-71
2023/07/05 07:44:31;;;;;;;7.25;2.63;;;;;;;;;;5110508;28;20479;-67
2023/07/05 07:46:58;;;;;;;8.82;2.35;;;;;;;;;;5105794;28;20044;-67
2023/07/05 07:49:25;;;;;;;4.88;1.30;;;;;;;;;;5100883;28;20731;-67
2023/07/05 07:51:51;;;;;;;5.70;1.20;;;;;;;;;;5105035;28;20050;-67
2023/07/05 07:54:20;;;;;;;2.67;0.98;;;;;;;;;;5104499;28;20105;-66
2023/07/05 07:56:47;;;;;;;3.65;1.33;;;;;;;;;;5105209;28;20052;-66
2023/07/05 07:59:14;;;;;;;3.38;1.08;;;;;;;;;;5114231;27;20039;-66
2023/07/05 08:01:41;;;;;;;3.10;1.17;;;;;;;;;;5104770;27;20116;-66
2023/07/05 08:04:09;;;;;;;2.28;0.90;;;;;;;;;;5105178;27;20044;-66
2023/07/05 08:06:38;;;;;;;5.32;1.20;;;;;;;;;;5113618;27;20039;-66
2023/07/05 08:09:05;;;;;;;5.28;0.90;;;;;;;;;;5094168;28;20040;-72
2023/07/05 08:11:32;;;;;;;5.72;0.90;;;;;;;;;;5110674;28;20046;-66
2023/07/05 08:13:58;;;;;;;5.20;1.00;;;;;;;;;;5111432;28;20400;-67
2023/07/05 08:16:24;;;;;;;3.15;1.00;;;;;;;;;;5105179;28;20062;-66
2023/07/05 08:18:50;;;;;;;2.03;0.85;;;;;;;;;;5106645;28;20053;-67
2023/07/05 08:21:17;;;;;;;3.92;0.95;;;;;;;;;;5110013;28;20108;-66
2023/07/05 08:23:44;;;;;;;4.82;1.23;;;;;;;;;;5110612;28;20050;-66
2023/07/05 08:26:15;;;;;;;4.18;1.08;;;;;;;;;;5110352;28;20049;-66
2023/07/05 08:28:41;;;;;;;5.30;1.10;;;;;;;;;;5108212;28;20100;-66
2023/07/05 08:31:08;;;;;;;3.28;1.08;;;;;;;;;;5107837;28;20067;-66
2023/07/05 08:33:36;;;;;;;5.20;1.10;;;;;;;;;;5109445;27;20182;-66
2023/07/05 08:36:05;;;;;;;6.60;1.20;;;;;;;;;;5111826;28;20047;-66
2023/07/05 08:38:31;;;;;;;4.22;1.23;;;;;;;;;;5106082;28;20051;-66
2023/07/05 08:41:05;;;;;;;10.48;1.88;;;;;;;;;;5102759;27;20043;-65
2023/07/05 08:44:03;;;;;;;4.82;1.48;;;;;;;;;;5107276;28;20122;-67
2023/07/05 08:46:29;;;;;;;6.05;1.63;;;;;;;;;;5098990;27;20059;-65
2023/07/05 08:49:00;;;;;;;10.48;2.05;;;;;;;;;;5108148;27;20414;-67
2023/07/05 08:51:28;;;;;;;9.00;2.08;;;;;;;;;;5115406;27;20547;-66
2023/07/05 08:53:56;;;;;;;13.50;3.00;;;;;;;;;;5110183;28;20115;-66
2023/07/05 08:56:26;;;;;;;11.63;2.40;;;;;;;;;;5110382;28;20112;-73
2023/07/05 08:58:57;;;;;;;13.57;3.00;;;;;;;;;;5107504;28;20104;-70
2023/07/05 09:01:27;;;;;;;16.90;3.92;;;;;;;;;;5111585;28;20048;-77
2023/07/05 09:03:53;;;;;;;20.73;4.13;;;;;;;;;;5111117;28;20032;-79
2023/07/05 09:06:22;;;;;;;17.67;5.22;;;;;;;;;;5111431;28;20475;-77
2023/07/05 09:09:05;;;;;;;23.58;4.03;;;;;;;;;;5101173;28;20100;-66
2023/07/05 09:11:41;;;;;;;18.10;4.70;;;;;;;;;;5111941;28;20040;-66
2023/07/05 09:14:14;;;;;;;24.35;5.47;;;;;;;;;;5111226;28;20309;-66
2023/07/05 09:16:46;;;;;;;20.55;5.30;;;;;;;;;;5110309;28;20368;-65
2023/07/05 09:19:22;;;;;;;18.55;5.22;;;;;;;;;;5110449;28;20031;-65
2023/07/05 09:21:53;;;;;;;20.00;4.57;;;;;;;;;;5113866;28;20438;-64
2023/07/05 09:24:29;;;;;;;10.07;4.13;;;;;;;;;;5096210;28;20051;-69
2023/07/05 09:26:55;;;;;;;16.73;3.67;;;;;;;;;;5104202;28;20067;-70
2023/07/05 09:29:37;;;;;;;12.40;3.33;;;;;;;;;;5101111;28;20126;-72
2023/07/05 09:32:13;;;;;;;13.73;3.00;;;;;;;;;;5105279;28;20140;-67
2023/07/05 09:34:43;;;;;;;10.70;3.03;;;;;;;;;;5104395;28;20047;-67
2023/07/05 09:37:15;;;;;;;9.60;2.92;;;;;;;;;;5106177;28;20134;-67
2023/07/05 09:39:49;;;;;;;7.70;2.47;;;;;;;;;;5104681;28;20177;-67
2023/07/05 09:42:20;;;;;;;8.05;2.45;;;;;;;;;;5104664;28;21048;-67
2023/07/05 09:44:46;;;;;;;6.22;1.65;;;;;;;;;;5102042;28;20479;-67
2023/07/05 09:47:12;;;;;;;4.28;1.15;;;;;;;;;;5103879;28;20138;-66
2023/07/05 09:49:39;;;;;;;3.20;1.10;;;;;;;;;;5102693;28;20139;-66
2023/07/05 09:52:10;;;;;;;5.60;1.35;;;;;;;;;;5100193;27;20104;-67
2023/07/05 09:54:38;;;;;;;5.70;1.30;;;;;;;;;;5110202;28;20054;-66
2023/07/05 09:57:06;;;;;;;4.80;1.20;;;;;;;;;;5107527;27;20491;-67
2023/07/05 09:59:33;;;;;;;3.20;1.30;;;;;;;;;;5107637;28;20671;-78
2023/07/05 10:02:14;;;;;;;3.30;1.15;;;;;;;;;;5108382;28;20045;-66
2023/07/05 10:04:51;;;;;;;3.72;0.90;;;;;;;;;;5103369;27;20055;-66
2023/07/05 10:07:18;;;;;;;4.15;0.80;;;;;;;;;;5109214;27;20032;-67
2023/07/05 10:09:59;;;;;;;5.10;1.20;;;;;;;;;;5106136;28;20044;-67
2023/07/05 10:12:27;;;;;;;3.50;0.80;;;;;;;;;;5108826;28;20078;-66
2023/07/05 10:14:55;;;;;;;4.68;0.85;;;;;;;;;;5140096;27;20040;-66
2023/07/05 10:17:21;;;;;;;2.92;0.80;;;;;;;;;;5088536;27;20502;-67
2023/07/05 10:19:53;;;;;;;5.72;1.17;;;;;;;;;;5105226;27;20065;-67
2023/07/05 10:22:27;;;;;;;12.02;1.00;;;;;;;;;;5109010;28;20051;-67
2023/07/05 10:25:03;;;;;;;7.30;0.95;;;;;;;;;;5110636;28;20043;-67
2023/07/05 10:27:29;;;;;;;6.85;1.58;;;;;;;;;;5106461;27;20052;-67
2023/07/05 10:30:03;;;;;;;4.65;0.90;;;;;;;;;;5109337;27;20126;-66
2023/07/05 10:32:30;;;;;;;2.03;0.70;;;;;;;;;;5104495;27;20047;-76
2023/07/05 10:34:57;;;;;;;4.70;0.60;;;;;;;;;;5104286;27;20040;-66
2023/07/05 10:37:27;;;;;;;3.15;1.15;;;;;;;;;;5104855;28;20032;-68
2023/07/05 10:39:54;;;;;;;2.35;0.93;;;;;;;;;;5101389;27;20403;-68
2023/07/05 10:42:20;;;;;;;2.80;0.68;;;;;;;;;;5103789;28;20066;-68
2023/07/05 10:44:46;;;;;;;1.30;0.60;;;;;;;;;;5104422;28;20040;-68
2023/07/05 10:47:14;;;;;;;3.45;1.00;;;;;;;;;;5110939;28;20078;-68
2023/07/05 10:49:43;;;;;;;4.35;0.95;;;;;;;;;;5110971;28;20048;-68
2023/07/05 10:52:13;;;;;;;3.20;0.73;;;;;;;;;;5108354;28;20115;-68
2023/07/05 10:54:40;;;;;;;3.80;0.90;;;;;;;;;;5110843;28;20090;-68
2023/07/05 10:57:13;;;;;;;3.95;0.80;;;;;;;;;;5106312;28;20452;-68
2023/07/05 10:59:43;;;;;;;3.40;0.82;;;;;;;;;;5105940;27;20101;-68
2023/07/05 11:02:12;;;;;;;3.85;1.13;;;;;;;;;;5105599;27;20071;-68
2023/07/05 11:04:40;;;;;;;4.80;1.10;;;;;;;;;;5108920;28;20071;-68
2023/07/05 11:07:10;;;;;;;2.63;0.98;;;;;;;;;;5107788;28;20051;-68
2023/07/05 11:09:41;;;;;;;6.15;0.98;;;;;;;;;;5108207;28;20390;-67
2023/07/05 11:12:27;;;;;;;3.85;1.00;;;;;;;;;;5106736;27;20044;-68
2023/07/05 11:14:54;;;;;;;8.48;1.40;;;;;;;;;;5101873;27;20047;-68
2023/07/05 11:17:33;;;;;;;7.80;1.50;;;;;;;;;;5106173;27;20035;-66
2023/07/05 11:20:00;;;;;;;6.43;1.20;;;;;;;;;;5111648;28;20039;-66
2023/07/05 11:22:43;;;;;;;5.22;1.23;;;;;;;;;;5112770;28;20062;-66
2023/07/05 11:25:10;;;;;;;6.65;1.48;;;;;;;;;;5103784;28;20479;-66
2023/07/05 11:28:03;;;;;;;6.65;1.27;;;;;;;;;;5107892;28;20062;-66
2023/07/05 11:30:43;;;;;;;10.10;1.58;;;;;;;;;;5102447;27;20498;-70
2023/07/05 11:33:09;;;;;;;11.77;1.60;;;;;;;;;;5113000;27;20127;-65
2023/07/05 11:35:44;;;;;;;7.00;1.33;;;;;;;;;;5112842;28;20031;-78
2023/07/05 11:38:10;;;;;;;9.70;2.00;;;;;;;;;;5092489;28;20104;-66
2023/07/05 11:40:55;;;;;;;9.10;1.95;;;;;;;;;;5111406;27;20039;-65
2023/07/05 11:43:25;;;;;;;11.63;2.38;;;;;;;;;;5104997;27;20044;-65
2023/07/05 11:45:52;;;;;;;17.65;3.45;;;;;;;;;;5111281;27;20047;-66
2023/07/05 11:48:38;;;;;;;18.23;5.85;;;;;;;;;;5111807;28;20110;-65
2023/07/05 11:51:04;;;;;;;21.92;3.38;;;;;;;;;;5110058;27;20046;-65
2023/07/05 11:53:32;;;;;;;20.98;4.07;;;;;;;;;;5111520;27;20208;-65
2023/07/05 11:56:00;;;;;;;16.48;3.20;;;;;;;;;;5106354;27;20583;-65
2023/07/05 11:58:35;;;;;;;17.33;4.38;;;;;;;;;;5110771;28;20048;-65
2023/07/05 12:01:03;;;;;;;19.27;3.95;;;;;;;;;;5102302;28;20410;-66
2023/07/05 12:03:30;;;;;;;17.55;3.65;;;;;;;;;;5098378;27;20044;-66
2023/07/05 12:06:04;;;;;;;21.70;4.03;;;;;;;;;;5102740;27;20077;-82
2023/07/05 12:08:40;;;;;;;18.52;3.20;;;;;;;;;;5133363;27;20066;-67
2023/07/05 12:11:08;;;;;;;16.10;4.45;;;;;;;;;;5111382;28;20048;-67
2023/07/05 12:13:35;;;;;;;20.42;4.07;;;;;;;;;;5110485;28;20051;-66
2023/07/05 12:16:04;;;;;;;22.27;3.22;;;;;;;;;;5106974;28;20425;-67
2023/07/05 12:18:30;;;;;;;14.32;2.70;;;;;;;;;;5109850;28;20047;-67
2023/07/05 12:20:58;;;;;;;12.23;2.72;;;;;;;;;;5110186;28;20039;-67
2023/07/05 12:23:28;;;;;;;11.77;2.45;;;;;;;;;;5110196;28;20129;-67
2023/07/05 12:25:55;;;;;;;15.98;2.35;;;;;;;;;;5112656;28;20046;-67
2023/07/05 12:28:23;;;;;;;9.93;2.22;;;;;;;;;;5110554;28;20047;-67
2023/07/05 12:30:50;;;;;;;18.98;2.63;;;;;;;;;;5090517;28;20039;-67
2023/07/05 12:33:19;;;;;;;13.35;2.63;;;;;;;;;;5110527;28;20119;-67
2023/07/05 12:35:46;;;;;;;19.20;2.85;;;;;;;;;;5109434;28;20054;-66
2023/07/05 12:38:18;;;;;;;13.23;2.47;;;;;;;;;;5111995;28;20047;-67
2023/07/05 12:40:54;;;;;;;12.48;3.00;;;;;;;;;;5109767;28;20575;-66
2023/07/05 12:43:22;;;;;;;19.67;4.03;;;;;;;;;;5109189;27;20487;-67
2023/07/05 12:45:48;;;;;;;21.90;4.32;;;;;;;;;;5108424;28;20103;-71
2023/07/05 12:48:25;;;;;;;20.50;3.53;;;;;;;;;;5105876;28;20065;-66
2023/07/05 12:51:21;;;;;;;19.63;4.28;;;;;;;;;;5110724;28;20082;-66
2023/07/05 12:53:48;;;;;;;18.92;3.78;;;;;;;;;;5093419;28;20707;-66
2023/07/05 12:56:18;;;;;;;23.15;4.25;;;;;;;;;;5104155;28;20043;-66
2023/07/05 12:59:06;;;;;;;24.50;3.78;;;;;;;;;;5104238;28;20043;-66
2023/07/05 13:01:35;;;;;;;28.52;4.85;;;;;;;;;;5103764;28;20032;-66
2023/07/05 13:04:02;;;;;;;19.75;3.92;;;;;;;;;;5106911;28;20102;-65
2023/07/05 13:06:29;;;;;;;23.92;6.10;;;;;;;;;;5109360;28;20040;-65
2023/07/05 13:08:55;;;;;;;24.50;4.65;;;;;;;;;;5106292;28;20060;-66
2023/07/05 13:11:30;;;;;;;19.27;4.13;;;;;;;;;;5112138;28;20443;-66
2023/07/05 13:14:04;;;;;;;24.08;4.30;;;;;;;;;;5108998;28;20487;-66
2023/07/05 13:16:39;;;;;;;32.22;5.32;;;;;;;;;;5101850;28;20035;-66
2023/07/05 13:19:06;;;;;;;23.90;4.53;;;;;;;;;;5106813;28;20572;-66
2023/07/05 13:21:43;;;;;;;26.27;5.15;;;;;;;;;;5106458;28;20040;-66
2023/07/05 13:24:35;;;;;;;32.53;5.68;;;;;;;;;;5110057;28;20051;-66
2023/07/05 13:27:02;;;;;;;38.55;4.88;;;;;;;;;;5135845;27;20396;-66
2023/07/05 13:29:35;;;;;;;23.67;5.15;;;;;;;;;;5100052;27;20066;-66
2023/07/05 13:32:02;;;;;;;;;;;;;;;;;;5113933;28;20079;-66
2023/07/05 13:34:28;;;;;;;23.05;3.70;;;;;;;;;;5113181;28;19920;-66
2023/07/05 13:37:07;;;;;;;25.52;4.78;;;;;;;;;;5115349;28;20044;-66
2023/07/05 13:39:35;;;;;;;20.88;4.68;;;;;;;;;;5114463;28;20044;-66
2023/07/05 13:42:03;;;;;;;23.23;4.28;;;;;;;;;;5111893;28;20081;-66
2023/07/05 13:44:29;;;;;;;14.68;4.35;;;;;;;;;;5118870;27;20047;-66
2023/07/05 13:46:55;;;;;;;21.95;4.15;;;;;;;;;;5104205;28;20063;-64
2023/07/05 13:49:24;;;;;;;20.15;4.00;;;;;;;;;;5117493;27;20058;-67
2023/07/05 13:51:52;;;;;;;22.02;4.13;;;;;;;;;;5115093;27;20065;-66
2023/07/05 13:54:18;;;;;;;22.38;3.72;;;;;;;;;;5114952;28;20100;-66
2023/07/05 13:56:44;;;;;;;19.48;3.83;;;;;;;;;;5110284;27;20524;-66
2023/07/05 13:59:14;;;;;;;18.15;4.05;;;;;;;;;;5089953;28;20348;-66
2023/07/05 14:01:40;;;;;;;23.95;4.68;;;;;;;;;;5113482;28;20399;-64
2023/07/05 14:04:10;;;;;;;16.05;4.57;;;;;;;;;;5114799;27;20378;-66
2023/07/05 14:06:36;;;;;;;29.35;5.28;;;;;;;;;;5114718;28;20051;-66
2023/07/05 14:09:03;;;;;;;24.63;4.07;;;;;;;;;;5113245;28;20059;-66
2023/07/05 14:11:31;;;;;;;28.42;5.30;;;;;;;;;;5108931;27;20119;-66
2023/07/05 14:14:00;;;;;;;17.23;3.38;;;;;;;;;;5114569;28;20036;-67
2023/07/05 14:16:28;;;;;;;18.45;4.80;;;;;;;;;;5112125;28;20058;-67
2023/07/05 14:18:54;;;;;;;18.25;4.78;;;;;;;;;;5113846;27;20459;-67
2023/07/05 14:21:24;;;;;;;24.02;4.05;;;;;;;;;;5118666;27;20043;-67
2023/07/05 14:23:50;;;;;;;17.60;3.28;;;;;;;;;;5107413;27;20044;-67
2023/07/05 14:26:16;;;;;;;17.65;3.00;;;;;;;;;;5106996;28;20114;-67
2023/07/05 14:28:42;;;;;;;18.67;3.47;;;;;;;;;;5104639;28;20383;-67
2023/07/05 14:31:12;;;;;;;18.13;3.85;;;;;;;;;;5103574;27;20398;-67
2023/07/05 14:33:39;;;;;;;8.35;2.97;;;;;;;;;;5104881;28;21043;-67
2023/07/05 14:36:06;;;;;;;15.85;3.08;;;;;;;;;;5106196;28;20043;-67
2023/07/05 14:38:32;;;;;;;10.73;2.42;;;;;;;;;;5104616;28;20056;-67
2023/07/05 14:40:59;;;;;;;14.13;2.60;;;;;;;;;;5103417;28;20039;-67
2023/07/05 14:43:25;;;;;;;11.70;2.55;;;;;;;;;;5107500;28;20044;-68